Time;durP1;ratioP1;P1;durP2;ratioP2;P2;SDS_P1;SDS_P2;PMS_P1;PMS_P2;Temp;Humidity;BMP_temperature;BMP_pressure;BME280_temperature;BME280_humidity;BME280_pressure;Samples;Min_cycle;Max_cycle;Signal;HPM_P1;HPM_P2
2021/03/10 00:00:51;;;;;;;37.63;21.65;;;;;;;-4.80;56.03;101296.81;1812864;79;21023;-55
2021/03/10 00:03:20;;;;;;;30.62;16.02;;;;;;;-4.83;55.91;101294.91;1812935;78;20980;-55
2021/03/10 00:05:50;;;;;;;25.05;13.10;;;;;;;-4.84;56.18;101291.88;1812727;78;21031;-55
2021/03/10 00:08:19;;;;;;;20.40;13.30;;;;;;;-4.87;56.34;101298.41;1799613;79;21008;-55
2021/03/10 00:10:57;;;;;;;16.82;11.25;;;;;;;-4.90;56.45;101292.84;1780444;80;21027;-55
2021/03/10 00:13:24;;;;;;;20.60;14.63;;;;;;;-4.89;55.89;101286.50;1780838;80;21265;-55
2021/03/10 00:15:55;;;;;;;29.12;16.77;;;;;;;-4.86;55.40;101288.88;1780677;80;21063;-55
2021/03/10 00:18:24;;;;;;;34.73;20.40;;;;;;;-4.89;56.11;101291.86;1780813;80;21212;-55
2021/03/10 00:21:02;;;;;;;28.50;18.48;;;;;;;-4.94;56.78;101290.11;1780855;80;21011;-55
2021/03/10 00:23:27;;;;;;;25.52;16.93;;;;;;;-4.98;57.16;101286.05;1780102;80;21042;-55
2021/03/10 00:25:59;;;;;;;17.27;11.95;;;;;;;-4.99;57.09;101289.71;1780412;80;21054;-54
2021/03/10 00:28:26;;;;;;;18.05;11.63;;;;;;;-5.00;57.07;101281.83;1780585;80;21047;-54
2021/03/10 00:30:54;;;;;;;15.35;10.88;;;;;;;-5.01;57.06;101280.99;1780677;80;21209;-54
2021/03/10 00:33:22;;;;;;;23.25;12.00;;;;;;;-5.02;57.01;101279.80;1780224;80;21015;-55
2021/03/10 00:35:50;;;;;;;16.85;11.12;;;;;;;-5.05;56.79;101276.42;1779768;80;21201;-54
2021/03/10 00:38:20;;;;;;;15.58;11.80;;;;;;;-5.05;56.12;101278.27;1779942;80;21047;-54
2021/03/10 00:40:52;;;;;;;17.02;10.48;;;;;;;-5.04;56.61;101279.96;1780462;80;21554;-54
2021/03/10 00:43:19;;;;;;;15.90;10.58;;;;;;;-5.05;56.89;101282.28;1780125;80;21395;-54
2021/03/10 00:45:50;;;;;;;23.07;12.63;;;;;;;-5.04;56.49;101276.77;1780563;80;21590;-54
2021/03/10 00:48:30;;;;;;;16.42;11.45;;;;;;;-5.00;56.31;101275.98;1779858;80;22135;-54
2021/03/10 00:50:55;;;;;;;17.15;10.32;;;;;;;-4.98;56.60;101276.67;1763296;81;21071;-54
2021/03/10 00:53:30;;;;;;;14.07;9.75;;;;;;;-5.00;56.93;101274.65;1763518;80;21012;-54
2021/03/10 00:55:57;;;;;;;18.15;11.25;;;;;;;-5.05;57.12;101280.95;1763401;80;21269;-54
2021/03/10 00:58:30;;;;;;;16.00;11.08;;;;;;;-5.10;57.11;101273.36;1763434;81;21061;-54
2021/03/10 01:00:58;;;;;;;17.15;10.78;;;;;;;-5.12;56.80;101275.84;1763537;80;21076;-54
2021/03/10 01:03:29;;;;;;;20.82;11.55;;;;;;;-5.16;56.90;101272.59;1763206;81;21024;-54
2021/03/10 01:06:01;;;;;;;17.12;11.43;;;;;;;-5.21;57.10;101272.22;1763004;81;21008;-54
2021/03/10 01:08:33;;;;;;;15.75;11.35;;;;;;;-5.19;57.11;101274.75;1763977;79;21428;-54
2021/03/10 01:11:09;;;;;;;16.73;11.73;;;;;;;-5.23;57.23;101271.03;1763012;81;21342;-54
2021/03/10 01:13:44;;;;;;;;;;;;;;;-5.25;57.58;101271.66;1766261;81;22219;-54
2021/03/10 01:16:12;;;;;;;16.62;12.58;;;;;;;-5.28;57.79;101271.13;1763294;81;20203;-54
2021/03/10 01:18:43;;;;;;;19.30;12.37;;;;;;;-5.29;57.74;101264.91;1763119;81;21044;-54
2021/03/10 01:21:14;;;;;;;19.67;14.25;;;;;;;-5.26;57.54;101263.78;1762300;80;21326;-53
2021/03/10 01:23:44;;;;;;;20.75;13.45;;;;;;;-5.24;57.55;101263.16;1730463;82;21029;-55
2021/03/10 01:26:13;;;;;;;14.43;11.80;;;;;;;-5.23;57.57;101264.34;1730540;82;20994;-55
2021/03/10 01:28:43;;;;;;;17.32;12.07;;;;;;;-5.27;57.36;101264.28;1730217;82;20994;-54
2021/03/10 01:31:12;;;;;;;14.98;11.97;;;;;;;-5.31;57.54;101274.11;1728915;82;21037;-54
2021/03/10 01:33:43;;;;;;;22.00;14.55;;;;;;;-5.37;57.56;101275.55;1729915;82;21651;-54
2021/03/10 01:36:12;;;;;;;27.30;16.57;;;;;;;-5.39;57.55;101279.72;1729959;82;21069;-54
2021/03/10 01:38:46;;;;;;;24.77;15.32;;;;;;;-5.38;57.59;101275.19;1730499;82;21052;-54
2021/03/10 01:41:24;;;;;;;76.72;36.85;;;;;;;-5.41;57.66;101275.49;1729473;82;21088;-54
2021/03/10 01:44:00;;;;;;;50.43;26.50;;;;;;;-5.33;57.46;101272.06;1730286;82;21017;-54
2021/03/10 01:46:39;;;;;;;48.95;27.05;;;;;;;-5.31;57.53;101276.80;1730388;82;21203;-54
2021/03/10 01:49:12;;;;;;;24.82;15.98;;;;;;;-5.35;57.45;101270.05;1730432;82;22179;-54
2021/03/10 01:51:49;;;;;;;24.70;16.50;;;;;;;-5.34;57.43;101278.40;1730472;82;21034;-54
2021/03/10 01:54:20;;;;;;;29.00;17.48;;;;;;;-5.35;57.78;101276.23;1728691;82;21061;-54
2021/03/10 01:56:51;;;;;;;51.70;26.23;;;;;;;-5.39;58.10;101278.85;1730132;82;21069;-53
2021/03/10 01:59:27;;;;;;;38.95;22.75;;;;;;;-5.42;58.30;101277.81;1684724;84;21297;-54
2021/03/10 02:02:01;;;;;;;35.90;18.60;;;;;;;-5.42;58.23;101275.97;1682985;84;21069;-54
2021/03/10 02:04:31;;;;;;;26.75;16.25;;;;;;;-5.39;58.21;101276.17;1684385;84;21072;-54
2021/03/10 02:07:34;;;;;;;25.35;16.93;;;;;;;-5.36;58.19;101281.73;1691601;84;21088;-54
2021/03/10 02:10:21;;;;;;;23.77;17.10;;;;;;;-5.34;58.34;101281.08;1690900;84;21710;-54
2021/03/10 02:13:32;;;;;;;27.97;18.93;;;;;;;-5.35;58.58;101287.45;1698616;84;21464;-54
2021/03/10 02:16:20;;;;;;;26.68;16.57;;;;;;;-5.39;58.78;101282.39;1715008;83;21034;-54
2021/03/10 02:19:49;;;;;;;24.45;16.60;;;;;;;-5.39;58.99;101283.73;1727813;83;21498;-54
2021/03/10 02:22:53;;;;;;;28.32;18.32;;;;;;;-5.44;59.32;101284.66;1739584;81;21023;-55
2021/03/10 02:25:43;;;;;;;18.90;15.68;;;;;;;-5.44;59.27;101283.83;1705293;83;21232;-54
2021/03/10 02:28:12;;;;;;;19.95;14.07;;;;;;;-5.47;59.36;101290.78;1705766;83;22092;-54
2021/03/10 02:30:45;;;;;;;20.30;14.53;;;;;;;-5.53;59.63;101280.17;1726673;83;21041;-54
2021/03/10 02:33:19;;;;;;;21.40;15.32;;;;;;;-5.59;59.76;101280.77;1726831;83;21048;-53
2021/03/10 02:35:58;;;;;;;32.73;15.63;;;;;;;-5.64;60.20;101276.36;1726743;83;21060;-54
2021/03/10 02:38:32;;;;;;;22.00;14.98;;;;;;;-5.65;60.48;101276.00;1716558;82;21181;-54
2021/03/10 02:41:06;;;;;;;19.75;13.90;;;;;;;-5.67;60.73;101282.84;1726538;83;21283;-54
2021/03/10 02:43:34;;;;;;;20.60;15.30;;;;;;;-5.69;60.92;101276.78;1726655;82;21048;-54
2021/03/10 02:46:04;;;;;;;30.05;17.67;;;;;;;-5.69;60.86;101274.10;1726377;83;21036;-54
2021/03/10 02:48:33;;;;;;;24.72;16.65;;;;;;;-5.67;60.65;101270.80;1726419;83;21673;-54
2021/03/10 02:51:10;;;;;;;22.70;16.77;;;;;;;-5.63;60.16;101274.88;1726925;83;21021;-53
2021/03/10 02:53:44;;;;;;;27.55;17.40;;;;;;;-5.58;59.80;101273.09;1727358;83;21212;-54
2021/03/10 02:56:17;;;;;;;24.90;16.93;;;;;;;-5.54;59.53;101274.48;1726969;83;21068;-54
2021/03/10 02:58:46;;;;;;;19.37;13.90;;;;;;;-5.52;59.43;101279.70;1726751;83;21052;-54
2021/03/10 03:01:16;;;;;;;19.20;14.68;;;;;;;-5.50;59.39;101276.36;1726483;83;21080;-54
2021/03/10 03:03:53;;;;;;;18.40;11.95;;;;;;;-5.51;59.37;101272.02;1726559;83;21688;-54
2021/03/10 03:06:23;;;;;;;19.37;13.38;;;;;;;-5.52;59.18;101280.52;1726674;82;22073;-54
2021/03/10 03:08:51;;;;;;;17.95;12.35;;;;;;;-5.49;59.23;101282.07;1726605;83;21020;-54
2021/03/10 03:11:21;;;;;;;18.52;12.85;;;;;;;-5.49;59.12;101278.89;1726714;82;21028;-54
2021/03/10 03:13:48;;;;;;;27.30;14.75;;;;;;;-5.49;59.24;101282.07;1726392;82;21662;-54
2021/03/10 03:16:18;;;;;;;16.60;13.68;;;;;;;-5.57;59.43;101278.80;1726934;83;20993;-54
2021/03/10 03:18:55;;;;;;;16.93;12.88;;;;;;;-5.60;59.41;101281.27;1726610;83;21211;-54
2021/03/10 03:21:25;;;;;;;20.95;14.95;;;;;;;-5.62;59.62;101280.55;1726479;83;21107;-54
2021/03/10 03:23:55;;;;;;;19.70;13.83;;;;;;;-5.65;59.72;101283.53;1726187;82;21076;-55
2021/03/10 03:26:22;;;;;;;22.95;15.98;;;;;;;-5.70;60.04;101292.98;1726584;83;20997;-56
2021/03/10 03:28:55;;;;;;;22.35;14.00;;;;;;;-5.73;60.15;101292.30;1726591;83;21024;-55
2021/03/10 03:31:26;;;;;;;24.50;15.93;;;;;;;-5.74;60.52;101291.11;1726960;83;22281;-56
2021/03/10 03:33:54;;;;;;;17.73;14.38;;;;;;;-5.79;60.70;101285.34;1726455;83;21064;-54
2021/03/10 03:36:27;;;;;;;30.08;15.88;;;;;;;-5.79;60.82;101290.19;1726487;83;21666;-54
2021/03/10 03:38:56;;;;;;;25.43;13.65;;;;;;;-5.77;60.79;101290.06;1726414;83;21028;-54
2021/03/10 03:41:23;;;;;;;21.37;15.83;;;;;;;-5.78;61.08;101291.05;1726421;83;21009;-54
2021/03/10 03:43:55;;;;;;;24.82;18.05;;;;;;;-5.79;61.31;101285.34;1726494;83;21287;-54
2021/03/10 03:46:29;;;;;;;39.23;18.90;;;;;;;-5.77;61.06;101287.39;1726595;83;21053;-54
2021/03/10 03:48:59;;;;;;;22.20;16.17;;;;;;;-5.77;61.01;101286.89;1726401;83;21084;-54
2021/03/10 03:51:30;;;;;;;27.17;21.15;;;;;;;-5.79;61.46;101288.02;1726160;83;21028;-54
2021/03/10 03:54:05;;;;;;;20.50;17.92;;;;;;;-5.85;61.87;101292.11;1726643;83;21072;-54
2021/03/10 03:56:37;;;;;;;39.92;19.48;;;;;;;-5.85;61.89;101295.30;1726826;83;22422;-54
2021/03/10 03:59:07;;;;;;;26.15;20.75;;;;;;;-5.86;62.05;101290.41;1726500;83;21032;-54
2021/03/10 04:01:35;;;;;;;35.45;17.37;;;;;;;-5.85;62.06;101292.61;1726470;83;21116;-54
2021/03/10 04:04:03;;;;;;;27.30;17.70;;;;;;;-5.82;62.07;101293.66;1726437;83;21096;-54
2021/03/10 04:06:31;;;;;;;32.67;17.45;;;;;;;-5.84;62.18;101287.63;1726398;83;21390;-54
2021/03/10 04:09:02;;;;;;;34.15;18.00;;;;;;;-5.85;62.24;101294.78;1726942;83;21268;-56
2021/03/10 04:11:30;;;;;;;37.93;16.52;;;;;;;-5.88;62.44;101289.73;1729850;82;21714;-56
2021/03/10 04:14:02;;;;;;;50.00;16.27;;;;;;;-5.86;62.45;101288.25;1727476;82;21154;-55
2021/03/10 04:16:33;;;;;;;27.93;16.82;;;;;;;-5.90;62.50;101288.53;1727174;83;21235;-56
2021/03/10 04:19:01;;;;;;;26.85;16.35;;;;;;;-5.88;62.63;101285.71;1726870;82;21056;-54
2021/03/10 04:21:34;;;;;;;31.97;24.65;;;;;;;-5.84;62.65;101288.96;1726793;83;21297;-55
2021/03/10 04:24:07;;;;;;;35.33;22.90;;;;;;;-5.86;62.61;101287.73;1733085;82;21056;-55
2021/03/10 04:26:40;;;;;;;;;;;;;;;-5.87;62.68;101294.58;1729680;83;21663;-55
2021/03/10 04:29:07;;;;;;;21.60;13.60;;;;;;;-5.91;62.80;101296.20;1732403;82;20317;-55
2021/03/10 04:31:37;;;;;;;38.35;13.85;;;;;;;-5.91;62.71;101297.54;1763515;81;21032;-55
2021/03/10 04:34:07;;;;;;;36.38;14.87;;;;;;;-5.91;62.79;101298.88;1763578;81;22275;-54
2021/03/10 04:36:41;;;;;;;33.40;15.18;;;;;;;-5.93;62.85;101298.20;1763424;81;21017;-55
2021/03/10 04:39:22;;;;;;;26.33;13.60;;;;;;;-5.85;62.94;101301.98;1763552;81;21064;-55
2021/03/10 04:41:54;;;;;;;36.08;15.08;;;;;;;-5.81;62.83;101304.72;1763783;81;21015;-56
2021/03/10 04:44:19;;;;;;;28.87;14.65;;;;;;;-5.82;62.86;101303.02;1762892;81;21654;-55
2021/03/10 04:46:46;;;;;;;37.05;14.50;;;;;;;-5.77;62.78;101300.27;1763616;81;22286;-55
2021/03/10 04:49:19;;;;;;;16.90;12.65;;;;;;;-5.75;62.69;101302.29;1763666;81;21000;-53
2021/03/10 04:51:47;;;;;;;30.82;12.70;;;;;;;-5.70;62.49;101300.54;1763637;81;21035;-54
2021/03/10 04:54:18;;;;;;;23.20;12.82;;;;;;;-5.67;62.46;101298.04;1763209;81;21067;-54
2021/03/10 04:56:47;;;;;;;33.35;13.55;;;;;;;-5.66;62.55;101299.23;1763423;81;21067;-54
2021/03/10 04:59:18;;;;;;;28.35;15.50;;;;;;;-5.65;62.61;101304.11;1763816;81;21613;-54
2021/03/10 05:01:52;;;;;;;35.30;18.37;;;;;;;-5.66;62.63;101307.27;1763685;81;23073;-54
2021/03/10 05:04:22;;;;;;;60.75;34.33;;;;;;;-5.59;62.69;101311.08;1763805;80;21067;-56
2021/03/10 05:06:52;;;;;;;52.93;30.72;;;;;;;-5.49;62.69;101311.52;1763551;81;21047;-56
2021/03/10 05:09:20;;;;;;;65.80;30.23;;;;;;;-5.39;62.60;101312.33;1763429;79;21028;-53
2021/03/10 05:11:54;;;;;;;46.10;29.30;;;;;;;-5.33;62.62;101317.11;1763698;81;21367;-54
2021/03/10 05:14:19;;;;;;;47.60;27.85;;;;;;;-5.28;62.64;101316.16;1762943;81;21554;-54
2021/03/10 05:16:48;;;;;;;64.20;29.10;;;;;;;-5.22;62.48;101318.23;1763737;81;21051;-56
2021/03/10 05:19:22;;;;;;;67.03;34.63;;;;;;;-5.16;62.33;101315.97;1763517;81;21024;-55
2021/03/10 05:21:52;;;;;;;97.30;40.40;;;;;;;-5.14;62.23;101320.19;1762240;81;21127;-55
2021/03/10 05:24:22;;;;;;;87.02;36.70;;;;;;;-5.10;61.95;101320.72;1737852;80;21665;-55
2021/03/10 05:26:49;;;;;;;84.67;44.48;;;;;;;-5.04;62.14;101320.15;1727718;83;20994;-54
2021/03/10 05:29:23;;;;;;;82.25;40.10;;;;;;;-4.98;62.16;101314.69;1729487;81;20994;-55
2021/03/10 05:31:51;;;;;;;104.10;53.45;;;;;;;-4.89;62.00;101325.36;1730103;82;21037;-55
2021/03/10 05:34:23;;;;;;;179.68;91.95;;;;;;;-4.80;61.88;101318.73;1730050;82;20986;-55
2021/03/10 05:36:55;;;;;;;124.50;58.75;;;;;;;-4.68;61.82;101318.88;1730314;82;21214;-55
2021/03/10 05:39:21;;;;;;;92.27;46.05;;;;;;;-4.58;61.70;101316.97;1729874;82;21015;-55
2021/03/10 05:41:52;;;;;;;87.70;42.95;;;;;;;-4.53;61.67;101314.69;1730026;82;21030;-55
2021/03/10 05:44:20;;;;;;;88.62;48.02;;;;;;;-4.42;61.45;101324.83;1729818;82;21045;-54
2021/03/10 05:46:51;;;;;;;94.62;45.92;;;;;;;-4.35;61.42;101328.08;1730262;82;21580;-53
2021/03/10 05:49:18;;;;;;;79.55;46.08;;;;;;;-4.25;61.43;101327.17;1729925;82;21387;-54
2021/03/10 05:51:49;;;;;;;120.55;52.23;;;;;;;-4.15;61.49;101331.95;1730041;82;21037;-55
2021/03/10 05:54:17;;;;;;;92.42;48.28;;;;;;;-4.07;61.34;101331.17;1730047;82;21650;-55
2021/03/10 05:56:55;;;;;;;95.17;50.28;;;;;;;-4.00;61.21;101332.27;1730001;82;21069;-55
2021/03/10 05:59:28;;;;;;;82.70;45.03;;;;;;;-3.88;60.96;101348.45;1729908;82;21021;-55
2021/03/10 06:01:58;;;;;;;73.92;40.73;;;;;;;-3.76;60.84;101341.48;1729972;82;22151;-55
2021/03/10 06:04:40;;;;;;;81.65;40.17;;;;;;;-3.65;60.30;101344.75;1730110;82;21057;-54
2021/03/10 06:07:24;;;;;;;58.87;31.15;;;;;;;-3.51;59.82;101347.36;1684633;84;21096;-54
2021/03/10 06:10:10;;;;;;;22.22;12.18;;;;;;;-3.36;58.91;101352.16;1704221;84;21669;-54
2021/03/10 06:12:47;;;;;;;24.07;14.10;;;;;;;-3.24;57.06;101358.95;1692956;84;21060;-54
2021/03/10 06:15:15;;;;;;;20.20;10.43;;;;;;;-3.07;55.03;101349.61;1707704;84;21388;-54
2021/03/10 06:17:48;;;;;;;35.73;13.53;;;;;;;-2.98;53.69;101351.34;1738524;82;21595;-54
2021/03/10 06:20:26;;;;;;;14.90;8.43;;;;;;;-2.91;52.63;101355.08;1730104;82;20962;-54
2021/03/10 06:22:55;;;;;;;20.12;8.43;;;;;;;-2.85;51.50;101357.11;1729957;82;21168;-54
2021/03/10 06:25:38;;;;;;;16.95;8.15;;;;;;;-2.81;50.61;101367.88;1728279;83;21637;-54
2021/03/10 06:28:18;;;;;;;10.98;6.75;;;;;;;-2.72;50.08;101362.54;1774369;79;28203;-54
2021/03/10 06:30:45;;;;;;;18.00;7.47;;;;;;;-2.73;49.14;101366.22;1747073;81;21150;-54
2021/03/10 06:33:23;;;;;;;14.05;6.92;;;;;;;-2.72;48.85;101359.85;1747285;82;21394;-54
2021/03/10 06:35:56;;;;;;;16.40;7.55;;;;;;;-2.65;48.52;101368.95;1747107;82;21619;-55
2021/03/10 06:38:35;;;;;;;15.60;7.50;;;;;;;-2.52;48.48;101365.28;1887404;76;28661;-54
2021/03/10 06:41:05;;;;;;;40.33;8.30;;;;;;;-2.49;48.41;101368.98;1858491;77;21017;-54
2021/03/10 06:43:41;;;;;;;12.50;8.73;;;;;;;-2.40;47.80;101364.97;1858004;77;21350;-54
2021/03/10 06:46:20;;;;;;;32.40;8.95;;;;;;;-2.34;47.65;101371.06;1858441;77;29119;-54
2021/03/10 06:49:03;;;;;;;17.27;7.47;;;;;;;-2.26;47.24;101369.70;1858312;77;21048;-54
2021/03/10 06:51:32;;;;;;;23.98;8.10;;;;;;;-2.17;47.07;101362.48;1858461;77;21045;-54
2021/03/10 06:54:00;;;;;;;24.32;8.25;;;;;;;-2.07;46.82;101367.72;1858259;77;21025;-55
2021/03/10 06:56:29;;;;;;;19.42;8.03;;;;;;;-2.02;45.43;101366.72;1857959;77;21286;-55
2021/03/10 06:59:09;;;;;;;14.33;6.45;;;;;;;-1.98;45.72;101373.46;1858064;77;22173;-54
2021/03/10 07:01:40;;;;;;;27.62;15.50;;;;;;;-1.92;45.14;101365.53;1857711;77;21081;-54
2021/03/10 07:04:10;;;;;;;16.12;9.08;;;;;;;-1.84;45.55;101363.36;1858011;77;20986;-55
2021/03/10 07:06:47;;;;;;;11.05;6.45;;;;;;;-1.71;45.38;101360.67;1856612;77;21036;-54
2021/03/10 07:09:17;;;;;;;18.65;9.03;;;;;;;-1.64;44.90;101364.38;1851885;77;21608;-54
2021/03/10 07:11:48;;;;;;;14.68;8.25;;;;;;;-1.58;44.50;101369.90;1777677;80;21671;-54
2021/03/10 07:14:19;;;;;;;17.50;8.25;;;;;;;-1.51;44.62;101367.38;1787010;80;21014;-55
2021/03/10 07:16:46;;;;;;;21.80;9.18;;;;;;;-1.43;44.34;101370.06;1791098;79;21069;-56
2021/03/10 07:19:16;;;;;;;12.23;7.67;;;;;;;-1.42;43.62;101372.24;1781619;80;21006;-55
2021/03/10 07:21:51;;;;;;;18.45;7.70;;;;;;;-1.50;42.99;101362.81;1735224;80;22628;-56
2021/03/10 07:24:29;;;;;;;16.40;7.62;;;;;;;-1.58;42.89;101363.16;1785463;80;21592;-56
2021/03/10 07:26:58;;;;;;;23.22;7.72;;;;;;;-1.63;43.08;101357.95;1782252;80;21045;-55
2021/03/10 07:29:25;;;;;;;13.25;8.30;;;;;;;-1.57;43.34;101357.29;1785402;80;20998;-56
2021/03/10 07:32:00;;;;;;;23.42;8.95;;;;;;;-1.45;43.13;101357.77;1755142;80;21059;-56
2021/03/10 07:34:40;;;;;;;18.60;9.40;;;;;;;-1.37;43.00;101351.51;1751211;81;21359;-56
2021/03/10 07:37:16;;;;;;;16.45;9.08;;;;;;;-1.24;43.14;101352.66;1754371;80;21013;-55
2021/03/10 07:39:44;;;;;;;15.80;8.70;;;;;;;-1.10;42.00;101352.46;1791644;79;20951;-54
2021/03/10 07:42:16;;;;;;;17.85;9.08;;;;;;;-1.15;41.38;101361.56;1747004;82;21034;-54
2021/03/10 07:44:56;;;;;;;14.40;8.60;;;;;;;-1.17;41.43;101356.00;1755748;81;21007;-54
2021/03/10 07:47:27;;;;;;;12.98;8.40;;;;;;;-1.17;41.35;101359.56;1824231;77;22126;-53
2021/03/10 07:50:00;;;;;;;16.95;11.33;;;;;;;-1.17;41.55;101358.70;1824202;76;21008;-53
2021/03/10 07:52:30;;;;;;;14.50;10.03;;;;;;;-1.04;41.79;101352.27;1853390;76;21235;-54
2021/03/10 07:54:59;;;;;;;21.35;10.48;;;;;;;-0.90;41.75;101349.33;1767849;79;21073;-54
2021/03/10 07:57:33;;;;;;;20.00;10.55;;;;;;;-0.78;41.95;101346.59;1775833;79;21079;-54
2021/03/10 08:00:07;;;;;;;14.65;9.90;;;;;;;-0.62;41.76;101340.79;1760252;79;22166;-55
2021/03/10 08:02:42;;;;;;;14.10;8.60;;;;;;;-0.59;40.94;101349.88;1760469;80;20986;-54
2021/03/10 08:05:26;;;;;;;17.90;9.45;;;;;;;-0.57;40.58;101345.16;1763093;79;20949;-55
2021/03/10 08:08:16;;;;;;;25.20;11.33;;;;;;;-0.51;40.86;101344.44;1760777;79;21090;-55
2021/03/10 08:10:48;;;;;;;18.55;10.68;;;;;;;-0.48;41.41;101343.25;1759837;79;21670;-55
2021/03/10 08:13:21;;;;;;;15.25;8.70;;;;;;;-0.37;41.84;101357.69;1776030;79;21391;-55
2021/03/10 08:15:49;;;;;;;22.60;8.43;;;;;;;-0.30;40.17;101355.10;1764450;79;21005;-56
2021/03/10 08:18:20;;;;;;;19.07;10.38;;;;;;;-0.22;39.88;101354.53;1761809;80;21072;-57
2021/03/10 08:20:49;;;;;;;20.52;10.05;;;;;;;-0.07;39.91;101351.91;1761961;80;20989;-55
2021/03/10 08:23:20;;;;;;;13.75;8.38;;;;;;;0.10;39.09;101344.52;1737332;81;20994;-56
2021/03/10 08:25:52;;;;;;;16.12;9.70;;;;;;;0.20;38.69;101351.03;1753431;81;21363;-56
2021/03/10 08:28:20;;;;;;;14.15;8.50;;;;;;;0.32;38.29;101358.18;1733672;80;21950;-55
2021/03/10 08:30:48;;;;;;;15.85;8.88;;;;;;;0.47;38.59;101341.98;1776256;80;21006;-55
2021/03/10 08:33:15;;;;;;;13.18;8.30;;;;;;;0.80;38.72;101348.40;1759117;80;20922;-55
2021/03/10 08:35:49;;;;;;;11.68;7.67;;;;;;;1.10;38.08;101342.98;1760494;80;20980;-55
2021/03/10 08:38:17;;;;;;;15.48;9.38;;;;;;;1.24;36.44;101347.53;1758846;80;21380;-54
2021/03/10 08:41:05;;;;;;;12.70;8.68;;;;;;;1.26;36.36;101346.84;1899452;74;22679;-55
2021/03/10 08:43:36;;;;;;;13.22;8.75;;;;;;;1.12;36.44;101353.13;1889291;75;22072;-55
2021/03/10 08:46:07;;;;;;;14.73;8.78;;;;;;;1.10;36.64;101344.33;1889057;75;21605;-54
2021/03/10 08:48:42;;;;;;;11.60;7.65;;;;;;;1.21;35.93;101346.56;1888940;75;21047;-55
2021/03/10 08:51:13;;;;;;;11.45;7.10;;;;;;;1.19;35.95;101343.22;1881927;75;21073;-56
2021/03/10 08:53:44;;;;;;;10.58;7.62;;;;;;;1.19;35.70;101344.05;1881244;75;22524;-56
2021/03/10 08:56:14;;;;;;;15.58;8.25;;;;;;;1.24;35.85;101335.88;1877821;74;21323;-55
2021/03/10 08:58:42;;;;;;;69.95;10.68;;;;;;;1.46;35.82;101340.81;1875133;75;21398;-56
2021/03/10 09:01:13;;;;;;;68.72;14.38;;;;;;;1.72;35.82;101330.28;1819862;75;20996;-56
2021/03/10 09:03:43;;;;;;;16.25;9.45;;;;;;;2.06;36.29;101327.38;1884316;75;20972;-54
2021/03/10 09:06:18;;;;;;;19.67;8.78;;;;;;;2.33;35.68;101327.61;1881852;74;20986;-56
2021/03/10 09:08:46;;;;;;;18.50;8.05;;;;;;;2.50;34.60;101332.73;1846562;75;20941;-57
2021/03/10 09:11:18;;;;;;;16.25;9.75;;;;;;;2.62;34.59;101331.16;1841517;76;21319;-54
2021/03/10 09:13:54;;;;;;;14.58;9.13;;;;;;;2.87;34.62;101326.59;1812969;77;20985;-55
2021/03/10 09:16:26;;;;;;;14.75;7.33;;;;;;;3.16;34.81;101329.58;1841641;76;21564;-56
2021/03/10 09:19:04;;;;;;;;;;;;;;;3.48;34.06;101320.92;1819398;77;20993;-56
2021/03/10 09:21:40;;;;;;;12.30;6.97;;;;;;;3.55;32.65;101321.78;1843557;77;20173;-55
2021/03/10 09:24:13;;;;;;;18.70;7.47;;;;;;;3.48;31.40;101322.28;1841338;76;21557;-55
2021/03/10 09:26:44;;;;;;;18.35;8.78;;;;;;;3.38;32.49;101319.42;1842926;76;20942;-55
2021/03/10 09:29:15;;;;;;;16.60;7.60;;;;;;;3.54;32.58;101315.49;1843576;77;20977;-55
2021/03/10 09:31:57;;;;;;;10.88;6.83;;;;;;;3.58;32.16;101309.14;1835144;77;20962;-56
2021/03/10 09:34:29;;;;;;;11.60;7.53;;;;;;;3.63;32.58;101311.56;1836335;77;20957;-55
2021/03/10 09:37:09;;;;;;;15.75;8.85;;;;;;;3.89;32.46;101311.83;1833352;77;21184;-56
2021/03/10 09:39:54;;;;;;;23.35;9.45;;;;;;;4.10;32.48;101306.19;1837462;76;22226;-55
2021/03/10 09:42:33;;;;;;;24.77;11.65;;;;;;;4.53;32.29;101309.50;1840282;75;22693;-54
2021/03/10 09:45:09;;;;;;;23.12;9.83;;;;;;;4.67;32.02;101301.63;1809237;78;21143;-56
2021/03/10 09:47:48;;;;;;;13.48;8.03;;;;;;;4.91;31.18;101304.17;1706499;81;21175;-55
2021/03/10 09:50:28;;;;;;;18.35;8.33;;;;;;;4.96;30.48;101311.73;1756429;81;21013;-56
2021/03/10 09:53:02;;;;;;;14.83;7.28;;;;;;;5.00;30.60;101317.03;1718783;82;21001;-56
2021/03/10 09:55:31;;;;;;;36.30;8.63;;;;;;;5.00;30.08;101311.08;1742621;81;20965;-54
2021/03/10 09:58:06;;;;;;;14.47;6.87;;;;;;;5.11;30.30;101308.73;1750186;81;20955;-55
2021/03/10 10:00:36;;;;;;;18.65;8.10;;;;;;;5.33;30.61;101313.34;1764789;81;21202;-56
2021/03/10 10:03:06;;;;;;;17.62;7.80;;;;;;;5.71;29.69;101319.33;1802298;79;21057;-56
2021/03/10 10:05:41;;;;;;;46.20;9.85;;;;;;;5.89;29.08;101313.97;1778998;80;21589;-56
2021/03/10 10:08:10;;;;;;;14.55;7.53;;;;;;;5.85;29.04;101315.46;1746162;80;20989;-55
2021/03/10 10:10:41;;;;;;;24.65;6.65;;;;;;;6.04;28.74;101310.11;1733618;82;21687;-55
2021/03/10 10:13:09;;;;;;;11.25;6.40;;;;;;;6.28;28.23;101306.27;1729153;82;21359;-56
2021/03/10 10:15:41;;;;;;;16.87;6.60;;;;;;;6.36;28.00;101312.28;1735622;79;21671;-56
2021/03/10 10:18:13;;;;;;;17.95;7.40;;;;;;;6.47;28.17;101309.86;1781606;79;20938;-55
2021/03/10 10:20:42;;;;;;;25.92;7.78;;;;;;;6.75;27.91;101304.75;1772102;79;20967;-56
2021/03/10 10:23:14;;;;;;;16.30;9.40;;;;;;;7.06;27.69;101308.41;1777719;80;20993;-59
2021/03/10 10:25:44;;;;;;;18.37;8.80;;;;;;;7.03;27.27;101304.77;1774642;80;22283;-54
2021/03/10 10:28:17;;;;;;;12.58;6.85;;;;;;;6.93;27.59;101294.91;1777725;80;21905;-56
2021/03/10 10:30:53;;;;;;;29.12;15.40;;;;;;;6.79;27.19;101299.68;1776912;80;20984;-55
2021/03/10 10:33:20;;;;;;;27.87;8.40;;;;;;;6.56;26.93;101296.25;1746049;80;20950;-55
2021/03/10 10:35:50;;;;;;;14.83;7.15;;;;;;;6.65;27.48;101289.96;1775922;80;21059;-56
2021/03/10 10:38:18;;;;;;;10.15;6.40;;;;;;;6.71;26.96;101295.33;1775355;80;21198;-56
2021/03/10 10:40:48;;;;;;;18.27;6.67;;;;;;;6.73;27.09;101289.64;1745888;80;21234;-56
2021/03/10 10:43:18;;;;;;;27.27;16.48;;;;;;;6.95;26.99;101290.59;1751607;80;21056;-56
2021/03/10 10:45:47;;;;;;;17.73;11.15;;;;;;;7.19;27.08;101283.36;1774256;80;20982;-56
2021/03/10 10:48:15;;;;;;;21.70;7.90;;;;;;;7.58;26.76;101279.23;1771107;80;21531;-56
2021/03/10 10:50:54;;;;;;;31.90;17.23;;;;;;;7.96;26.16;101277.21;1773112;79;22106;-55
2021/03/10 10:53:22;;;;;;;28.38;13.35;;;;;;;8.23;25.68;101272.13;1776478;80;21006;-54
2021/03/10 10:55:52;;;;;;;24.77;9.90;;;;;;;8.34;25.89;101276.47;1781432;79;21009;-56
2021/03/10 10:58:21;;;;;;;26.57;11.08;;;;;;;8.52;25.99;101275.56;1777180;79;21486;-54
2021/03/10 11:00:48;;;;;;;20.85;6.60;;;;;;;8.73;25.79;101268.61;1775966;79;21127;-54
2021/03/10 11:03:19;;;;;;;17.60;6.72;;;;;;;8.81;24.19;101270.98;1775752;79;21861;-55
2021/03/10 11:05:53;;;;;;;16.40;6.75;;;;;;;8.37;24.32;101263.67;1772642;79;21013;-56
2021/03/10 11:08:29;;;;;;;18.02;9.20;;;;;;;7.95;25.23;101270.06;1774964;79;21426;-56
2021/03/10 11:10:57;;;;;;;15.80;7.15;;;;;;;7.98;25.27;101264.66;1773959;79;20999;-57
2021/03/10 11:13:27;;;;;;;16.32;6.87;;;;;;;7.85;25.46;101262.42;1779080;80;20989;-55
2021/03/10 11:15:57;;;;;;;11.63;7.03;;;;;;;7.76;25.60;101263.84;1771705;80;21162;-56
2021/03/10 11:18:41;;;;;;;13.15;7.45;;;;;;;8.09;25.73;101255.09;1863036;75;22823;-54
2021/03/10 11:21:12;;;;;;;14.50;7.67;;;;;;;8.26;25.27;101262.61;1834975;76;22314;-54
2021/03/10 11:23:47;;;;;;;11.30;6.92;;;;;;;8.08;24.82;101260.25;1769443;79;21600;-54
2021/03/10 11:26:24;;;;;;;12.90;6.62;;;;;;;7.92;25.06;101255.48;1776508;79;20955;-55
2021/03/10 11:28:52;;;;;;;20.08;9.38;;;;;;;7.83;24.80;101253.63;1802619;78;21028;-53
2021/03/10 11:31:25;;;;;;;17.15;10.48;;;;;;;7.62;25.09;101250.91;1807214;77;20939;-56
2021/03/10 11:33:56;;;;;;;16.75;7.92;;;;;;;7.93;25.29;101256.63;1813009;77;22020;-55
2021/03/10 11:36:24;;;;;;;16.95;7.15;;;;;;;8.49;25.13;101254.95;1756852;80;21353;-56
2021/03/10 11:38:53;;;;;;;12.88;5.90;;;;;;;8.86;23.79;101256.04;1781779;79;22144;-56